KPDK/PDK METAR and TAF weather

Enter ICAO airport designator
Station Type Date Time Source
KPDK METAR 2019/06/16 03:53 UTC NOAA

KPDK 160353Z AUTO 16003KT 10SM CLR 23/18 A3009 RMK AO2 SLP173 T02280178


Station Type Date Time Source
KPDK Decoded METAR 2019/06/16 03:53 UTC NOAA

ATLANTA DE KALB-PEACHTREE, GA, United States (KPDK) 33-53N 084-18W 302M
Jun 15, 2019 - 11:53 PM EDT / 2019.06.16 0353 UTC
Wind: from the SSE (160 degrees) at 3 MPH (3 KT):0
Visibility: 10 mile(s):0
Sky conditions: clear
Temperature: 73.0 F (22.8 C)
Dew Point: 64.0 F (17.8 C)
Relative Humidity: 73%
Pressure (altimeter): 30.09 in. Hg (1018 hPa)
ob: KPDK 160353Z AUTO 16003KT 10SM CLR 23/18 A3009 RMK AO2 SLP173 T02280178
cycle: 4

Station Type Date Time Source
KPDK TAF 2019/06/15 18:34 UTC NOAA

TAF KPDK 151732Z 1518/1618 19007KT P6SM FEW040
FM160100 17004KT P6SM FEW250
FM161100 00000KT P6SM SCT250
FM161500 25005KT P6SM SCT035

Example: see airport list